Terminal Aerodrome Forecast
Issued by NWS

Home | Current Version | Previous Version | Text Only | Print | Product List | Glossary On
Versions: 1 2 3 4 5 6 7 8 9 10 11 12 13 14 15
000
FTUS41 KLWX 032330
TAFMTN
TAF
KMTN 032330Z 0400/0424 16005KT P6SM FEW100
     FM040100 VRB03KT P6SM FEW100
     FM041600 17007KT P6SM FEW060
     FM042000 18011KT P6SM FEW060
      AMD NOT SKED 0402/0412=

USA.gov is the U.S. government's official web portal to all federal, state and local government web resources and services.